sensor_id;sensor_type;location;lat;lon;timestamp;P1;durP1;ratioP1;P2;durP2;ratioP2
43519;SDS011;46848;51.980;5.918;2023-07-13T00:01:30;5.72;;;1.63;;
43519;SDS011;46848;51.980;5.918;2023-07-13T00:03:56;3.47;;;1.15;;
43519;SDS011;46848;51.980;5.918;2023-07-13T00:06:22;4.65;;;1.20;;
43519;SDS011;46848;51.980;5.918;2023-07-13T00:08:48;4.65;;;1.25;;
43519;SDS011;46848;51.980;5.918;2023-07-13T00:11:15;4.47;;;1.17;;
43519;SDS011;46848;51.980;5.918;2023-07-13T00:13:41;6.28;;;1.85;;
43519;SDS011;46848;51.980;5.918;2023-07-13T00:16:08;5.20;;;1.48;;
43519;SDS011;46848;51.980;5.918;2023-07-13T00:18:34;8.77;;;1.80;;
43519;SDS011;46848;51.980;5.918;2023-07-13T00:21:03;5.82;;;1.27;;
43519;SDS011;46848;51.980;5.918;2023-07-13T00:23:36;4.72;;;1.35;;
43519;SDS011;46848;51.980;5.918;2023-07-13T00:26:18;5.78;;;1.20;;
43519;SDS011;46848;51.980;5.918;2023-07-13T00:28:43;6.80;;;1.52;;
43519;SDS011;46848;51.980;5.918;2023-07-13T00:31:10;3.92;;;1.38;;
43519;SDS011;46848;51.980;5.918;2023-07-13T00:33:37;4.75;;;1.63;;
43519;SDS011;46848;51.980;5.918;2023-07-13T00:36:03;3.65;;;1.23;;
43519;SDS011;46848;51.980;5.918;2023-07-13T00:38:29;7.53;;;1.38;;
43519;SDS011;46848;51.980;5.918;2023-07-13T00:41:01;5.30;;;1.60;;
43519;SDS011;46848;51.980;5.918;2023-07-13T00:44:19;6.05;;;1.50;;
43519;SDS011;46848;51.980;5.918;2023-07-13T00:46:48;5.13;;;1.60;;
43519;SDS011;46848;51.980;5.918;2023-07-13T00:49:15;5.20;;;1.40;;
43519;SDS011;46848;51.980;5.918;2023-07-13T00:52:06;6.63;;;1.50;;
43519;SDS011;46848;51.980;5.918;2023-07-13T00:54:37;5.18;;;1.40;;
43519;SDS011;46848;51.980;5.918;2023-07-13T00:57:07;3.75;;;1.27;;
43519;SDS011;46848;51.980;5.918;2023-07-13T00:59:36;8.82;;;1.40;;
43519;SDS011;46848;51.980;5.918;2023-07-13T01:02:29;4.50;;;1.20;;
43519;SDS011;46848;51.980;5.918;2023-07-13T01:04:55;5.55;;;1.30;;
43519;SDS011;46848;51.980;5.918;2023-07-13T01:07:21;4.65;;;1.10;;
43519;SDS011;46848;51.980;5.918;2023-07-13T01:09:47;4.38;;;1.17;;
43519;SDS011;46848;51.980;5.918;2023-07-13T01:12:13;5.05;;;1.25;;
43519;SDS011;46848;51.980;5.918;2023-07-13T01:14:39;4.30;;;0.90;;
43519;SDS011;46848;51.980;5.918;2023-07-13T01:17:05;7.70;;;1.35;;
43519;SDS011;46848;51.980;5.918;2023-07-13T01:19:37;3.30;;;0.98;;
43519;SDS011;46848;51.980;5.918;2023-07-13T01:22:15;6.18;;;0.82;;
43519;SDS011;46848;51.980;5.918;2023-07-13T01:24:43;4.78;;;1.10;;
43519;SDS011;46848;51.980;5.918;2023-07-13T01:27:11;4.60;;;1.10;;
43519;SDS011;46848;51.980;5.918;2023-07-13T01:29:39;6.28;;;1.13;;
43519;SDS011;46848;51.980;5.918;2023-07-13T01:32:10;8.43;;;1.27;;
43519;SDS011;46848;51.980;5.918;2023-07-13T01:34:37;6.63;;;1.25;;
43519;SDS011;46848;51.980;5.918;2023-07-13T01:37:04;4.10;;;1.08;;
43519;SDS011;46848;51.980;5.918;2023-07-13T01:39:30;3.92;;;1.48;;
43519;SDS011;46848;51.980;5.918;2023-07-13T01:41:56;4.20;;;0.98;;
43519;SDS011;46848;51.980;5.918;2023-07-13T01:44:22;4.05;;;1.23;;
43519;SDS011;46848;51.980;5.918;2023-07-13T01:46:48;6.50;;;1.30;;
43519;SDS011;46848;51.980;5.918;2023-07-13T01:49:13;5.07;;;1.33;;
43519;SDS011;46848;51.980;5.918;2023-07-13T01:51:39;7.22;;;1.88;;
43519;SDS011;46848;51.980;5.918;2023-07-13T01:54:04;5.28;;;1.30;;
43519;SDS011;46848;51.980;5.918;2023-07-13T01:56:30;6.15;;;2.20;;
43519;SDS011;46848;51.980;5.918;2023-07-13T01:58:55;5.93;;;1.10;;
43519;SDS011;46848;51.980;5.918;2023-07-13T02:01:21;3.95;;;1.40;;
43519;SDS011;46848;51.980;5.918;2023-07-13T02:03:47;4.00;;;0.88;;
43519;SDS011;46848;51.980;5.918;2023-07-13T02:06:13;6.18;;;1.48;;
43519;SDS011;46848;51.980;5.918;2023-07-13T02:08:39;4.78;;;1.20;;
43519;SDS011;46848;51.980;5.918;2023-07-13T02:11:06;7.07;;;1.52;;
43519;SDS011;46848;51.980;5.918;2023-07-13T02:13:32;5.13;;;1.60;;
43519;SDS011;46848;51.980;5.918;2023-07-13T02:15:57;3.63;;;1.45;;
43519;SDS011;46848;51.980;5.918;2023-07-13T02:18:23;6.45;;;1.48;;
43519;SDS011;46848;51.980;5.918;2023-07-13T02:20:48;6.78;;;1.27;;
43519;SDS011;46848;51.980;5.918;2023-07-13T02:23:14;7.72;;;1.40;;
43519;SDS011;46848;51.980;5.918;2023-07-13T02:25:40;6.38;;;1.55;;
43519;SDS011;46848;51.980;5.918;2023-07-13T02:28:06;4.65;;;1.48;;
43519;SDS011;46848;51.980;5.918;2023-07-13T02:30:31;5.22;;;1.30;;
43519;SDS011;46848;51.980;5.918;2023-07-13T02:32:57;7.03;;;1.55;;
43519;SDS011;46848;51.980;5.918;2023-07-13T02:35:23;7.32;;;1.60;;
43519;SDS011;46848;51.980;5.918;2023-07-13T02:37:48;7.05;;;1.25;;
43519;SDS011;46848;51.980;5.918;2023-07-13T02:40:14;7.35;;;1.42;;
43519;SDS011;46848;51.980;5.918;2023-07-13T02:42:40;7.45;;;1.80;;
43519;SDS011;46848;51.980;5.918;2023-07-13T02:45:07;6.18;;;1.23;;
43519;SDS011;46848;51.980;5.918;2023-07-13T02:47:33;5.75;;;1.35;;
43519;SDS011;46848;51.980;5.918;2023-07-13T02:49:59;5.03;;;1.38;;
43519;SDS011;46848;51.980;5.918;2023-07-13T02:52:25;5.32;;;1.63;;
43519;SDS011;46848;51.980;5.918;2023-07-13T02:54:50;4.03;;;1.60;;
43519;SDS011;46848;51.980;5.918;2023-07-13T02:57:16;5.95;;;1.60;;
43519;SDS011;46848;51.980;5.918;2023-07-13T02:59:41;6.50;;;1.70;;
43519;SDS011;46848;51.980;5.918;2023-07-13T03:02:07;5.70;;;1.80;;
43519;SDS011;46848;51.980;5.918;2023-07-13T03:04:34;6.30;;;1.38;;
43519;SDS011;46848;51.980;5.918;2023-07-13T03:07:00;7.18;;;1.67;;
43519;SDS011;46848;51.980;5.918;2023-07-13T03:09:26;8.05;;;1.80;;
43519;SDS011;46848;51.980;5.918;2023-07-13T03:11:53;8.15;;;1.92;;
43519;SDS011;46848;51.980;5.918;2023-07-13T03:14:19;6.43;;;1.55;;
43519;SDS011;46848;51.980;5.918;2023-07-13T03:16:46;7.32;;;1.90;;
43519;SDS011;46848;51.980;5.918;2023-07-13T03:19:12;6.80;;;2.00;;
43519;SDS011;46848;51.980;5.918;2023-07-13T03:21:37;8.95;;;1.98;;
43519;SDS011;46848;51.980;5.918;2023-07-13T03:24:03;6.93;;;1.83;;
43519;SDS011;46848;51.980;5.918;2023-07-13T03:26:28;7.38;;;1.73;;
43519;SDS011;46848;51.980;5.918;2023-07-13T03:28:54;4.47;;;1.63;;
43519;SDS011;46848;51.980;5.918;2023-07-13T03:31:24;5.90;;;1.75;;
43519;SDS011;46848;51.980;5.918;2023-07-13T03:36:22;4.85;;;1.48;;
43519;SDS011;46848;51.980;5.918;2023-07-13T03:38:51;8.55;;;1.70;;
43519;SDS011;46848;51.980;5.918;2023-07-13T03:41:22;5.40;;;1.60;;
43519;SDS011;46848;51.980;5.918;2023-07-13T03:43:49;7.28;;;2.00;;
43519;SDS011;46848;51.980;5.918;2023-07-13T03:46:15;6.00;;;1.70;;
43519;SDS011;46848;51.980;5.918;2023-07-13T03:48:43;6.28;;;1.55;;
43519;SDS011;46848;51.980;5.918;2023-07-13T03:51:10;5.00;;;1.80;;
43519;SDS011;46848;51.980;5.918;2023-07-13T03:53:38;7.07;;;1.90;;
43519;SDS011;46848;51.980;5.918;2023-07-13T03:56:05;6.85;;;2.63;;
43519;SDS011;46848;51.980;5.918;2023-07-13T03:58:32;6.25;;;1.67;;
43519;SDS011;46848;51.980;5.918;2023-07-13T04:01:00;7.68;;;2.10;;
43519;SDS011;46848;51.980;5.918;2023-07-13T04:03:28;5.90;;;1.90;;
43519;SDS011;46848;51.980;5.918;2023-07-13T04:05:55;8.10;;;1.83;;
43519;SDS011;46848;51.980;5.918;2023-07-13T04:08:24;4.75;;;1.70;;
43519;SDS011;46848;51.980;5.918;2023-07-13T04:10:51;6.55;;;1.73;;
43519;SDS011;46848;51.980;5.918;2023-07-13T04:13:16;7.07;;;1.90;;
43519;SDS011;46848;51.980;5.918;2023-07-13T04:15:42;5.05;;;2.05;;
43519;SDS011;46848;51.980;5.918;2023-07-13T04:18:08;7.75;;;1.90;;
43519;SDS011;46848;51.980;5.918;2023-07-13T04:20:34;5.63;;;1.70;;
43519;SDS011;46848;51.980;5.918;2023-07-13T04:22:59;7.15;;;1.85;;
43519;SDS011;46848;51.980;5.918;2023-07-13T04:25:25;10.40;;;2.33;;
43519;SDS011;46848;51.980;5.918;2023-07-13T04:27:54;6.07;;;2.45;;
43519;SDS011;46848;51.980;5.918;2023-07-13T04:30:39;5.40;;;2.13;;
43519;SDS011;46848;51.980;5.918;2023-07-13T04:33:05;7.78;;;2.15;;
43519;SDS011;46848;51.980;5.918;2023-07-13T04:35:31;7.55;;;2.63;;
43519;SDS011;46848;51.980;5.918;2023-07-13T04:40:54;9.43;;;2.80;;
43519;SDS011;46848;51.980;5.918;2023-07-13T04:43:21;9.07;;;2.30;;
43519;SDS011;46848;51.980;5.918;2023-07-13T04:45:47;8.40;;;2.40;;
43519;SDS011;46848;51.980;5.918;2023-07-13T04:48:13;8.45;;;2.38;;
43519;SDS011;46848;51.980;5.918;2023-07-13T04:50:38;11.80;;;2.20;;
43519;SDS011;46848;51.980;5.918;2023-07-13T04:53:04;12.45;;;2.83;;
43519;SDS011;46848;51.980;5.918;2023-07-13T04:55:30;8.65;;;2.30;;
43519;SDS011;46848;51.980;5.918;2023-07-13T04:57:56;7.82;;;2.40;;
43519;SDS011;46848;51.980;5.918;2023-07-13T05:00:26;6.75;;;2.35;;
43519;SDS011;46848;51.980;5.918;2023-07-13T05:02:52;7.70;;;2.47;;
43519;SDS011;46848;51.980;5.918;2023-07-13T05:05:18;7.78;;;2.40;;
43519;SDS011;46848;51.980;5.918;2023-07-13T05:07:44;12.20;;;2.88;;
43519;SDS011;46848;51.980;5.918;2023-07-13T05:10:09;7.43;;;2.67;;
43519;SDS011;46848;51.980;5.918;2023-07-13T05:12:35;8.52;;;2.35;;
43519;SDS011;46848;51.980;5.918;2023-07-13T05:15:01;10.00;;;2.72;;
43519;SDS011;46848;51.980;5.918;2023-07-13T05:17:28;8.75;;;2.38;;
43519;SDS011;46848;51.980;5.918;2023-07-13T05:19:53;9.40;;;2.90;;
43519;SDS011;46848;51.980;5.918;2023-07-13T05:22:19;9.00;;;2.58;;
43519;SDS011;46848;51.980;5.918;2023-07-13T05:24:44;7.32;;;2.65;;
43519;SDS011;46848;51.980;5.918;2023-07-13T05:27:10;7.30;;;2.53;;
43519;SDS011;46848;51.980;5.918;2023-07-13T05:29:36;8.73;;;2.63;;
43519;SDS011;46848;51.980;5.918;2023-07-13T05:32:01;8.60;;;2.95;;
43519;SDS011;46848;51.980;5.918;2023-07-13T05:34:28;12.05;;;3.10;;
43519;SDS011;46848;51.980;5.918;2023-07-13T05:36:54;7.82;;;3.00;;
43519;SDS011;46848;51.980;5.918;2023-07-13T05:39:19;9.45;;;3.22;;
43519;SDS011;46848;51.980;5.918;2023-07-13T05:41:45;12.27;;;3.33;;
43519;SDS011;46848;51.980;5.918;2023-07-13T05:44:11;14.13;;;3.45;;
43519;SDS011;46848;51.980;5.918;2023-07-13T05:46:36;13.32;;;3.17;;
43519;SDS011;46848;51.980;5.918;2023-07-13T05:49:02;9.43;;;3.03;;
43519;SDS011;46848;51.980;5.918;2023-07-13T05:51:28;9.88;;;3.95;;
43519;SDS011;46848;51.980;5.918;2023-07-13T05:53:54;9.60;;;3.30;;
43519;SDS011;46848;51.980;5.918;2023-07-13T05:56:19;9.90;;;3.90;;
43519;SDS011;46848;51.980;5.918;2023-07-13T05:58:45;10.70;;;3.90;;
43519;SDS011;46848;51.980;5.918;2023-07-13T06:01:12;12.40;;;4.10;;
43519;SDS011;46848;51.980;5.918;2023-07-13T06:03:39;12.82;;;4.15;;
43519;SDS011;46848;51.980;5.918;2023-07-13T06:06:05;10.25;;;3.97;;
43519;SDS011;46848;51.980;5.918;2023-07-13T06:08:31;12.55;;;4.32;;
43519;SDS011;46848;51.980;5.918;2023-07-13T06:11:04;15.13;;;4.72;;
43519;SDS011;46848;51.980;5.918;2023-07-13T06:13:34;10.77;;;4.32;;
43519;SDS011;46848;51.980;5.918;2023-07-13T06:16:00;17.35;;;5.18;;
43519;SDS011;46848;51.980;5.918;2023-07-13T06:18:29;14.25;;;4.68;;
43519;SDS011;46848;51.980;5.918;2023-07-13T06:20:55;11.65;;;4.53;;
43519;SDS011;46848;51.980;5.918;2023-07-13T06:23:22;11.95;;;5.03;;
43519;SDS011;46848;51.980;5.918;2023-07-13T06:25:47;13.30;;;5.22;;
43519;SDS011;46848;51.980;5.918;2023-07-13T06:28:13;17.80;;;6.15;;
43519;SDS011;46848;51.980;5.918;2023-07-13T06:30:38;15.43;;;5.47;;
43519;SDS011;46848;51.980;5.918;2023-07-13T06:33:04;11.70;;;5.72;;
43519;SDS011;46848;51.980;5.918;2023-07-13T06:35:30;17.85;;;6.40;;
43519;SDS011;46848;51.980;5.918;2023-07-13T06:37:56;13.93;;;6.05;;
43519;SDS011;46848;51.980;5.918;2023-07-13T06:40:21;14.65;;;5.38;;
43519;SDS011;46848;51.980;5.918;2023-07-13T06:42:47;12.07;;;5.97;;
43519;SDS011;46848;51.980;5.918;2023-07-13T06:45:12;12.52;;;5.72;;
43519;SDS011;46848;51.980;5.918;2023-07-13T06:47:38;15.63;;;6.40;;
43519;SDS011;46848;51.980;5.918;2023-07-13T06:50:04;12.05;;;5.70;;
43519;SDS011;46848;51.980;5.918;2023-07-13T06:52:30;17.58;;;7.65;;
43519;SDS011;46848;51.980;5.918;2023-07-13T06:54:55;17.27;;;7.47;;
43519;SDS011;46848;51.980;5.918;2023-07-13T06:57:21;14.95;;;7.00;;
43519;SDS011;46848;51.980;5.918;2023-07-13T06:59:46;18.88;;;7.68;;
43519;SDS011;46848;51.980;5.918;2023-07-13T07:02:12;14.88;;;6.72;;
43519;SDS011;46848;51.980;5.918;2023-07-13T07:04:38;15.82;;;7.20;;
43519;SDS011;46848;51.980;5.918;2023-07-13T07:07:03;15.18;;;7.07;;
43519;SDS011;46848;51.980;5.918;2023-07-13T07:09:29;15.10;;;7.15;;
43519;SDS011;46848;51.980;5.918;2023-07-13T07:11:56;18.02;;;7.32;;
43519;SDS011;46848;51.980;5.918;2023-07-13T07:14:22;14.75;;;7.40;;
43519;SDS011;46848;51.980;5.918;2023-07-13T07:16:48;13.93;;;6.85;;
43519;SDS011;46848;51.980;5.918;2023-07-13T07:19:14;13.80;;;6.53;;
43519;SDS011;46848;51.980;5.918;2023-07-13T07:21:40;14.05;;;6.35;;
43519;SDS011;46848;51.980;5.918;2023-07-13T07:24:05;15.98;;;6.97;;
43519;SDS011;46848;51.980;5.918;2023-07-13T07:26:32;15.30;;;6.85;;
43519;SDS011;46848;51.980;5.918;2023-07-13T07:28:58;15.25;;;6.72;;
43519;SDS011;46848;51.980;5.918;2023-07-13T07:31:24;14.93;;;6.38;;
43519;SDS011;46848;51.980;5.918;2023-07-13T07:33:49;11.80;;;6.32;;
43519;SDS011;46848;51.980;5.918;2023-07-13T07:36:15;12.80;;;6.15;;
43519;SDS011;46848;51.980;5.918;2023-07-13T07:38:42;16.02;;;6.43;;
43519;SDS011;46848;51.980;5.918;2023-07-13T07:41:08;14.70;;;6.80;;
43519;SDS011;46848;51.980;5.918;2023-07-13T07:43:34;14.02;;;5.93;;
43519;SDS011;46848;51.980;5.918;2023-07-13T07:46:00;15.15;;;7.57;;
43519;SDS011;46848;51.980;5.918;2023-07-13T07:48:26;16.95;;;7.28;;
43519;SDS011;46848;51.980;5.918;2023-07-13T07:50:51;16.98;;;6.68;;
43519;SDS011;46848;51.980;5.918;2023-07-13T07:53:17;14.35;;;6.32;;
43519;SDS011;46848;51.980;5.918;2023-07-13T07:55:42;11.43;;;6.63;;
43519;SDS011;46848;51.980;5.918;2023-07-13T07:58:08;14.32;;;5.65;;
43519;SDS011;46848;51.980;5.918;2023-07-13T08:00:33;16.77;;;6.80;;
43519;SDS011;46848;51.980;5.918;2023-07-13T08:03:00;12.73;;;5.43;;
43519;SDS011;46848;51.980;5.918;2023-07-13T08:05:26;13.38;;;6.22;;
43519;SDS011;46848;51.980;5.918;2023-07-13T08:07:52;14.95;;;6.55;;
43519;SDS011;46848;51.980;5.918;2023-07-13T08:10:18;13.38;;;6.15;;
43519;SDS011;46848;51.980;5.918;2023-07-13T08:12:43;12.05;;;5.82;;
43519;SDS011;46848;51.980;5.918;2023-07-13T08:15:10;13.82;;;5.53;;
43519;SDS011;46848;51.980;5.918;2023-07-13T08:17:37;16.95;;;6.72;;
43519;SDS011;46848;51.980;5.918;2023-07-13T08:20:03;12.07;;;6.30;;
43519;SDS011;46848;51.980;5.918;2023-07-13T08:22:29;18.67;;;6.82;;
43519;SDS011;46848;51.980;5.918;2023-07-13T08:24:55;11.68;;;5.72;;
43519;SDS011;46848;51.980;5.918;2023-07-13T08:27:21;15.13;;;6.65;;
43519;SDS011;46848;51.980;5.918;2023-07-13T08:29:53;13.48;;;6.15;;
43519;SDS011;46848;51.980;5.918;2023-07-13T08:32:22;15.15;;;6.85;;
43519;SDS011;46848;51.980;5.918;2023-07-13T08:34:57;10.65;;;5.95;;
43519;SDS011;46848;51.980;5.918;2023-07-13T08:37:22;12.10;;;6.18;;
43519;SDS011;46848;51.980;5.918;2023-07-13T08:39:57;15.20;;;6.47;;
43519;SDS011;46848;51.980;5.918;2023-07-13T08:42:39;13.50;;;5.30;;
43519;SDS011;46848;51.980;5.918;2023-07-13T08:48:15;15.60;;;5.15;;
43519;SDS011;46848;51.980;5.918;2023-07-13T08:53:38;13.38;;;5.38;;
43519;SDS011;46848;51.980;5.918;2023-07-13T08:56:14;11.45;;;5.00;;
43519;SDS011;46848;51.980;5.918;2023-07-13T08:58:48;10.85;;;5.20;;
43519;SDS011;46848;51.980;5.918;2023-07-13T09:04:12;11.10;;;4.53;;
43519;SDS011;46848;51.980;5.918;2023-07-13T09:09:43;11.25;;;4.53;;
43519;SDS011;46848;51.980;5.918;2023-07-13T09:17:57;9.20;;;4.18;;
43519;SDS011;46848;51.980;5.918;2023-07-13T09:20:52;7.32;;;3.65;;
43519;SDS011;46848;51.980;5.918;2023-07-13T09:23:30;9.32;;;4.18;;
43519;SDS011;46848;51.980;5.918;2023-07-13T09:25:59;11.30;;;4.22;;
43519;SDS011;46848;51.980;5.918;2023-07-13T09:28:29;8.07;;;3.85;;
43519;SDS011;46848;51.980;5.918;2023-07-13T09:31:15;9.90;;;3.72;;
43519;SDS011;46848;51.980;5.918;2023-07-13T09:33:48;8.65;;;3.22;;
43519;SDS011;46848;51.980;5.918;2023-07-13T09:38:49;8.02;;;3.13;;
43519;SDS011;46848;51.980;5.918;2023-07-13T09:44:18;5.73;;;2.67;;
43519;SDS011;46848;51.980;5.918;2023-07-13T09:46:55;6.57;;;2.40;;
43519;SDS011;46848;51.980;5.918;2023-07-13T09:49:39;8.90;;;2.85;;
43519;SDS011;46848;51.980;5.918;2023-07-13T09:52:06;7.68;;;2.28;;
43519;SDS011;46848;51.980;5.918;2023-07-13T09:54:44;5.00;;;2.63;;
43519;SDS011;46848;51.980;5.918;2023-07-13T09:57:14;5.53;;;2.30;;
43519;SDS011;46848;51.980;5.918;2023-07-13T09:59:46;5.03;;;2.20;;
43519;SDS011;46848;51.980;5.918;2023-07-13T10:02:23;6.40;;;2.80;;
43519;SDS011;46848;51.980;5.918;2023-07-13T10:04:55;5.35;;;2.00;;
43519;SDS011;46848;51.980;5.918;2023-07-13T10:07:26;7.32;;;2.45;;
43519;SDS011;46848;51.980;5.918;2023-07-13T10:09:59;7.22;;;2.25;;
43519;SDS011;46848;51.980;5.918;2023-07-13T10:12:27;6.00;;;2.30;;
43519;SDS011;46848;51.980;5.918;2023-07-13T10:14:55;7.38;;;2.53;;
43519;SDS011;46848;51.980;5.918;2023-07-13T10:17:32;7.90;;;2.80;;
43519;SDS011;46848;51.980;5.918;2023-07-13T10:20:03;7.45;;;2.70;;
43519;SDS011;46848;51.980;5.918;2023-07-13T10:22:43;7.95;;;3.08;;
43519;SDS011;46848;51.980;5.918;2023-07-13T10:25:16;7.13;;;2.42;;
43519;SDS011;46848;51.980;5.918;2023-07-13T10:27:47;7.82;;;2.70;;
43519;SDS011;46848;51.980;5.918;2023-07-13T10:30:20;8.20;;;3.13;;
43519;SDS011;46848;51.980;5.918;2023-07-13T10:32:50;6.95;;;2.55;;
43519;SDS011;46848;51.980;5.918;2023-07-13T10:35:17;6.95;;;2.97;;
43519;SDS011;46848;51.980;5.918;2023-07-13T10:37:52;7.82;;;2.60;;
43519;SDS011;46848;51.980;5.918;2023-07-13T10:40:23;9.20;;;2.50;;
43519;SDS011;46848;51.980;5.918;2023-07-13T10:42:55;5.80;;;2.03;;
43519;SDS011;46848;51.980;5.918;2023-07-13T10:45:24;5.70;;;2.45;;
43519;SDS011;46848;51.980;5.918;2023-07-13T10:47:51;10.40;;;3.47;;
43519;SDS011;46848;51.980;5.918;2023-07-13T10:50:24;6.45;;;2.60;;
43519;SDS011;46848;51.980;5.918;2023-07-13T10:52:52;10.23;;;2.53;;
43519;SDS011;46848;51.980;5.918;2023-07-13T10:58:12;8.65;;;2.97;;
43519;SDS011;46848;51.980;5.918;2023-07-13T11:00:49;5.45;;;2.42;;
43519;SDS011;46848;51.980;5.918;2023-07-13T11:03:59;6.07;;;2.40;;
43519;SDS011;46848;51.980;5.918;2023-07-13T11:08:55;5.50;;;2.15;;
43519;SDS011;46848;51.980;5.918;2023-07-13T11:18:48;5.78;;;2.30;;
43519;SDS011;46848;51.980;5.918;2023-07-13T11:21:33;5.97;;;2.20;;
43519;SDS011;46848;51.980;5.918;2023-07-13T11:31:43;5.05;;;1.92;;
43519;SDS011;46848;51.980;5.918;2023-07-13T11:34:18;7.35;;;2.05;;
43519;SDS011;46848;51.980;5.918;2023-07-13T11:37:10;4.78;;;1.63;;
43519;SDS011;46848;51.980;5.918;2023-07-13T11:39:40;4.82;;;1.50;;
43519;SDS011;46848;51.980;5.918;2023-07-13T11:42:10;4.22;;;1.40;;
43519;SDS011;46848;51.980;5.918;2023-07-13T11:44:42;5.20;;;1.48;;
43519;SDS011;46848;51.980;5.918;2023-07-13T11:47:18;5.10;;;1.67;;
43519;SDS011;46848;51.980;5.918;2023-07-13T11:49:50;1.83;;;0.90;;
43519;SDS011;46848;51.980;5.918;2023-07-13T11:52:32;4.90;;;1.67;;
43519;SDS011;46848;51.980;5.918;2023-07-13T11:55:01;3.30;;;1.00;;
43519;SDS011;46848;51.980;5.918;2023-07-13T11:57:30;3.30;;;1.13;;
43519;SDS011;46848;51.980;5.918;2023-07-13T11:59:59;3.38;;;1.25;;
43519;SDS011;46848;51.980;5.918;2023-07-13T12:02:33;4.75;;;1.85;;
43519;SDS011;46848;51.980;5.918;2023-07-13T12:05:04;4.97;;;1.95;;
43519;SDS011;46848;51.980;5.918;2023-07-13T12:07:32;3.53;;;1.70;;
43519;SDS011;46848;51.980;5.918;2023-07-13T12:10:41;4.38;;;1.88;;
43519;SDS011;46848;51.980;5.918;2023-07-13T12:15:18;4.25;;;2.17;;
43519;SDS011;46848;51.980;5.918;2023-07-13T12:17:45;4.35;;;1.75;;
43519;SDS011;46848;51.980;5.918;2023-07-13T12:20:21;5.07;;;2.08;;
43519;SDS011;46848;51.980;5.918;2023-07-13T12:22:50;4.18;;;1.63;;
43519;SDS011;46848;51.980;5.918;2023-07-13T12:25:16;4.47;;;1.67;;
43519;SDS011;46848;51.980;5.918;2023-07-13T12:27:46;4.30;;;1.67;;
43519;SDS011;46848;51.980;5.918;2023-07-13T12:30:23;6.20;;;1.80;;
43519;SDS011;46848;51.980;5.918;2023-07-13T12:32:59;4.00;;;1.88;;
43519;SDS011;46848;51.980;5.918;2023-07-13T12:35:27;5.57;;;1.60;;
43519;SDS011;46848;51.980;5.918;2023-07-13T12:37:56;4.15;;;1.52;;
43519;SDS011;46848;51.980;5.918;2023-07-13T12:40:25;3.65;;;1.40;;
43519;SDS011;46848;51.980;5.918;2023-07-13T12:42:56;5.28;;;1.67;;
43519;SDS011;46848;51.980;5.918;2023-07-13T12:45:26;4.13;;;1.60;;
43519;SDS011;46848;51.980;5.918;2023-07-13T12:48:02;5.13;;;1.80;;
43519;SDS011;46848;51.980;5.918;2023-07-13T12:50:36;9.48;;;1.90;;
43519;SDS011;46848;51.980;5.918;2023-07-13T12:53:06;4.85;;;1.83;;
43519;SDS011;46848;51.980;5.918;2023-07-13T12:55:52;5.10;;;1.77;;
43519;SDS011;46848;51.980;5.918;2023-07-13T13:00:53;4.35;;;1.45;;
43519;SDS011;46848;51.980;5.918;2023-07-13T13:03:22;3.75;;;1.50;;
43519;SDS011;46848;51.980;5.918;2023-07-13T13:06:02;3.78;;;1.60;;
43519;SDS011;46848;51.980;5.918;2023-07-13T13:08:49;4.07;;;1.40;;
43519;SDS011;46848;51.980;5.918;2023-07-13T13:11:17;4.10;;;1.48;;
43519;SDS011;46848;51.980;5.918;2023-07-13T13:13:44;4.15;;;1.55;;
43519;SDS011;46848;51.980;5.918;2023-07-13T13:18:59;4.25;;;1.60;;
43519;SDS011;46848;51.980;5.918;2023-07-13T13:21:28;3.28;;;1.33;;
43519;SDS011;46848;51.980;5.918;2023-07-13T13:23:53;4.22;;;1.60;;
43519;SDS011;46848;51.980;5.918;2023-07-13T13:26:23;4.72;;;1.85;;
43519;SDS011;46848;51.980;5.918;2023-07-13T13:28:49;3.78;;;1.88;;
43519;SDS011;46848;51.980;5.918;2023-07-13T13:31:14;4.05;;;1.33;;
43519;SDS011;46848;51.980;5.918;2023-07-13T13:33:41;6.03;;;1.65;;
43519;SDS011;46848;51.980;5.918;2023-07-13T13:36:17;3.53;;;1.40;;
43519;SDS011;46848;51.980;5.918;2023-07-13T13:38:44;4.60;;;1.75;;
43519;SDS011;46848;51.980;5.918;2023-07-13T13:41:11;4.28;;;1.58;;
43519;SDS011;46848;51.980;5.918;2023-07-13T13:43:38;4.20;;;1.50;;
43519;SDS011;46848;51.980;5.918;2023-07-13T13:46:08;5.65;;;1.50;;
43519;SDS011;46848;51.980;5.918;2023-07-13T13:48:39;5.30;;;1.67;;
43519;SDS011;46848;51.980;5.918;2023-07-13T13:51:26;6.60;;;1.70;;
43519;SDS011;46848;51.980;5.918;2023-07-13T13:53:51;4.93;;;1.80;;
43519;SDS011;46848;51.980;5.918;2023-07-13T13:56:19;3.58;;;1.33;;
43519;SDS011;46848;51.980;5.918;2023-07-13T13:58:45;3.53;;;1.50;;
43519;SDS011;46848;51.980;5.918;2023-07-13T14:01:18;4.00;;;1.42;;
43519;SDS011;46848;51.980;5.918;2023-07-13T14:03:45;4.95;;;1.50;;
43519;SDS011;46848;51.980;5.918;2023-07-13T14:06:13;3.75;;;1.25;;
43519;SDS011;46848;51.980;5.918;2023-07-13T14:08:40;3.25;;;1.40;;
43519;SDS011;46848;51.980;5.918;2023-07-13T14:11:08;2.10;;;1.30;;
43519;SDS011;46848;51.980;5.918;2023-07-13T14:13:38;3.43;;;1.30;;
43519;SDS011;46848;51.980;5.918;2023-07-13T14:16:12;3.65;;;1.40;;
43519;SDS011;46848;51.980;5.918;2023-07-13T14:18:42;2.92;;;1.45;;
43519;SDS011;46848;51.980;5.918;2023-07-13T14:21:12;4.72;;;1.40;;
43519;SDS011;46848;51.980;5.918;2023-07-13T14:23:40;2.83;;;1.42;;
43519;SDS011;46848;51.980;5.918;2023-07-13T14:26:16;4.53;;;1.42;;
43519;SDS011;46848;51.980;5.918;2023-07-13T14:28:53;3.92;;;1.58;;
43519;SDS011;46848;51.980;5.918;2023-07-13T14:31:21;3.33;;;1.63;;
43519;SDS011;46848;51.980;5.918;2023-07-13T14:33:48;3.45;;;1.75;;
43519;SDS011;46848;51.980;5.918;2023-07-13T14:38:45;2.83;;;1.48;;
43519;SDS011;46848;51.980;5.918;2023-07-13T14:41:11;2.90;;;1.27;;
43519;SDS011;46848;51.980;5.918;2023-07-13T14:43:37;4.22;;;1.65;;
43519;SDS011;46848;51.980;5.918;2023-07-13T14:46:02;2.85;;;1.42;;
43519;SDS011;46848;51.980;5.918;2023-07-13T14:48:29;4.07;;;1.58;;
43519;SDS011;46848;51.980;5.918;2023-07-13T14:50:56;2.63;;;1.25;;
43519;SDS011;46848;51.980;5.918;2023-07-13T14:53:27;3.88;;;1.48;;
43519;SDS011;46848;51.980;5.918;2023-07-13T14:55:53;5.10;;;1.67;;
43519;SDS011;46848;51.980;5.918;2023-07-13T14:58:18;2.53;;;1.30;;
43519;SDS011;46848;51.980;5.918;2023-07-13T15:00:44;4.80;;;1.30;;
43519;SDS011;46848;51.980;5.918;2023-07-13T15:03:29;4.78;;;1.95;;
43519;SDS011;46848;51.980;5.918;2023-07-13T15:05:55;3.70;;;1.40;;
43519;SDS011;46848;51.980;5.918;2023-07-13T15:08:20;3.08;;;1.50;;
43519;SDS011;46848;51.980;5.918;2023-07-13T15:10:46;2.55;;;1.23;;
43519;SDS011;46848;51.980;5.918;2023-07-13T15:13:13;4.85;;;1.30;;
43519;SDS011;46848;51.980;5.918;2023-07-13T15:15:44;3.83;;;1.90;;
43519;SDS011;46848;51.980;5.918;2023-07-13T15:18:13;4.75;;;2.13;;
43519;SDS011;46848;51.980;5.918;2023-07-13T15:20:42;3.20;;;1.40;;
43519;SDS011;46848;51.980;5.918;2023-07-13T15:23:10;4.28;;;1.52;;
43519;SDS011;46848;51.980;5.918;2023-07-13T15:25:37;3.72;;;1.52;;
43519;SDS011;46848;51.980;5.918;2023-07-13T15:28:03;3.70;;;1.55;;
43519;SDS011;46848;51.980;5.918;2023-07-13T15:30:31;3.08;;;1.42;;
43519;SDS011;46848;51.980;5.918;2023-07-13T15:33:12;4.60;;;1.63;;
43519;SDS011;46848;51.980;5.918;2023-07-13T15:35:42;3.55;;;1.40;;
43519;SDS011;46848;51.980;5.918;2023-07-13T15:38:18;5.22;;;1.25;;
43519;SDS011;46848;51.980;5.918;2023-07-13T15:40:50;3.13;;;1.40;;
43519;SDS011;46848;51.980;5.918;2023-07-13T15:43:17;3.55;;;1.55;;
43519;SDS011;46848;51.980;5.918;2023-07-13T15:45:43;5.15;;;1.80;;
43519;SDS011;46848;51.980;5.918;2023-07-13T15:48:21;3.10;;;1.58;;
43519;SDS011;46848;51.980;5.918;2023-07-13T15:50:48;2.72;;;1.48;;
43519;SDS011;46848;51.980;5.918;2023-07-13T15:53:29;3.25;;;1.45;;
43519;SDS011;46848;51.980;5.918;2023-07-13T15:55:57;4.57;;;2.13;;